RYR46K LEPA-EDDB
Flight info
| Callsign | RYR46K |
|---|---|
| Flight time | 2h 4m |
| Altitude | 36000 |
| Route | MEROS8B MEROS N853 LUMAS DCT MAXIR DCT LUSOL DCT BODRU DCT OKTET DCT IRMAR DCT KINES DCT VANAS DCT MOBLO DCT UBIMA DCT SOSAL DCT KORED DCT BERSU DCT DITON/N0456F370 DCT LOKTA DCT TEDGO DCT TIKNI T279 TAMEB T278 KLF KLF06R |
| Aircraft | B738/M-SDE2E3FGHIRWXY/LB1 |
Departure
| Time | 2026-05-07 20:13 |
|---|---|
| Airport | Palma de Mallorca Airport (LEPA) |
Arrival
| Time | 2026-05-07 22:17 |
|---|---|
| Airport | Berlin Brandenburg Airport (EDDB) |
| Time | Latitude | Longitude | Altitude | Speed | Heading |
|---|---|---|---|---|---|
| 2026-05-07 19:36 | 39.54990 | 2.73321 | 35 ft | 0 kts | 186° |
| 2026-05-07 20:03 | 39.54992 | 2.73321 | 35 ft | 1 kts | 186° |
| 2026-05-07 20:04 | 39.55006 | 2.73323 | 35 ft | 2 kts | 186° |
| 2026-05-07 20:04 | 39.55017 | 2.73324 | 35 ft | 2 kts | 172° |
| 2026-05-07 20:04 | 39.55030 | 2.73315 | 35 ft | 2 kts | 128° |
| 2026-05-07 20:04 | 39.55035 | 2.73302 | 35 ft | 0 kts | 98° |
| 2026-05-07 20:05 | 39.55035 | 2.73292 | 35 ft | 0 kts | 95° |
| 2026-05-07 20:07 | 39.55033 | 2.73334 | 35 ft | 9 kts | 90° |
| 2026-05-07 20:07 | 39.55046 | 2.73413 | 35 ft | 8 kts | 61° |
| 2026-05-07 20:07 | 39.55075 | 2.73474 | 35 ft | 7 kts | 59° |
| 2026-05-07 20:08 | 39.55098 | 2.73525 | 35 ft | 6 kts | 60° |
| 2026-05-07 20:08 | 39.55125 | 2.73583 | 35 ft | 12 kts | 58° |
| 2026-05-07 20:08 | 39.55173 | 2.73682 | 35 ft | 12 kts | 67° |
| 2026-05-07 20:08 | 39.55137 | 2.73768 | 35 ft | 13 kts | 148° |
| 2026-05-07 20:09 | 39.55058 | 2.73830 | 35 ft | 12 kts | 149° |
| 2026-05-07 20:09 | 39.54985 | 2.73886 | 35 ft | 11 kts | 149° |
| 2026-05-07 20:09 | 39.54920 | 2.73937 | 35 ft | 10 kts | 149° |
| 2026-05-07 20:10 | 39.54803 | 2.73977 | 35 ft | 9 kts | 234° |
| 2026-05-07 20:10 | 39.54756 | 2.73943 | 35 ft | 7 kts | 158° |
| 2026-05-07 20:10 | 39.54709 | 2.73949 | 35 ft | 7 kts | 216° |
| 2026-05-07 20:10 | 39.54664 | 2.73862 | 35 ft | 13 kts | 239° |
| 2026-05-07 20:11 | 39.54615 | 2.73758 | 35 ft | 14 kts | 240° |
| 2026-05-07 20:11 | 39.54549 | 2.73674 | 35 ft | 11 kts | 172° |
| 2026-05-07 20:11 | 39.54488 | 2.73719 | 35 ft | 9 kts | 149° |
| 2026-05-07 20:11 | 39.54434 | 2.73761 | 35 ft | 8 kts | 142° |
| 2026-05-07 20:12 | 39.54426 | 2.73805 | 35 ft | 3 kts | 60° |
| 2026-05-07 20:12 | 39.54474 | 2.73910 | 35 ft | 42 kts | 59° |
| 2026-05-07 20:12 | 39.54781 | 2.74563 | 35 ft | 123 kts | 58° |
| 2026-05-07 20:12 | 39.55334 | 2.75732 | 236 ft | 171 kts | 59° |
| 2026-05-07 20:13 | 39.55936 | 2.77036 | 1221 ft | 169 kts | 63° |
| 2026-05-07 20:13 | 39.56242 | 2.78355 | 2220 ft | 155 kts | 83° |
| 2026-05-07 20:13 | 39.56675 | 2.79682 | 2700 ft | 173 kts | 50° |
| 2026-05-07 20:13 | 39.57576 | 2.80791 | 3258 ft | 185 kts | 50° |
| 2026-05-07 20:14 | 39.58353 | 2.82167 | 3779 ft | 198 kts | 60° |
| 2026-05-07 20:14 | 39.59083 | 2.83770 | 3977 ft | 211 kts | 61° |
| 2026-05-07 20:14 | 39.59836 | 2.85420 | 3987 ft | 215 kts | 61° |
| 2026-05-07 20:14 | 39.60599 | 2.87073 | 3985 ft | 215 kts | 61° |
| 2026-05-07 20:15 | 39.61369 | 2.88742 | 3985 ft | 215 kts | 61° |
| 2026-05-07 20:15 | 39.62151 | 2.90437 | 4140 ft | 229 kts | 61° |
| 2026-05-07 20:15 | 39.62943 | 2.92280 | 4793 ft | 242 kts | 64° |
| 2026-05-07 20:15 | 39.63728 | 2.94279 | 5434 ft | 256 kts | 64° |
| 2026-05-07 20:16 | 39.64560 | 2.96354 | 6259 ft | 262 kts | 62° |
| 2026-05-07 20:16 | 39.65421 | 2.98403 | 7178 ft | 264 kts | 62° |
| 2026-05-07 20:16 | 39.66315 | 3.00485 | 8034 ft | 268 kts | 62° |
| 2026-05-07 20:16 | 39.67226 | 3.02603 | 8878 ft | 271 kts | 61° |
| 2026-05-07 20:17 | 39.68138 | 3.04736 | 9717 ft | 274 kts | 62° |
| 2026-05-07 20:17 | 39.69064 | 3.06905 | 10411 ft | 282 kts | 60° |
| 2026-05-07 20:17 | 39.70034 | 3.09186 | 10955 ft | 295 kts | 61° |
| 2026-05-07 20:17 | 39.71061 | 3.11559 | 11323 ft | 315 kts | 61° |
| 2026-05-07 20:18 | 39.72187 | 3.14092 | 11710 ft | 333 kts | 61° |
| 2026-05-07 20:18 | 39.73346 | 3.16777 | 12157 ft | 348 kts | 63° |
| 2026-05-07 20:18 | 39.74527 | 3.19601 | 12625 ft | 363 kts | 62° |
| 2026-05-07 20:18 | 39.75732 | 3.22480 | 13244 ft | 370 kts | 62° |
| 2026-05-07 20:19 | 39.76978 | 3.25396 | 14105 ft | 371 kts | 58° |
| 2026-05-07 20:19 | 39.78557 | 3.28113 | 14688 ft | 381 kts | 50° |
| 2026-05-07 20:19 | 39.80358 | 3.30652 | 15248 ft | 389 kts | 49° |
| 2026-05-07 20:19 | 39.82225 | 3.33233 | 15911 ft | 394 kts | 47° |
| 2026-05-07 20:20 | 39.84092 | 3.35865 | 16644 ft | 397 kts | 50° |
| 2026-05-07 20:20 | 39.85911 | 3.38537 | 17328 ft | 399 kts | 51° |
| 2026-05-07 20:20 | 39.87746 | 3.41330 | 17900 ft | 406 kts | 52° |
| 2026-05-07 20:20 | 39.89565 | 3.44108 | 18467 ft | 411 kts | 51° |
| 2026-05-07 20:21 | 39.91423 | 3.46939 | 19147 ft | 414 kts | 51° |
| 2026-05-07 20:21 | 39.93323 | 3.49825 | 19653 ft | 421 kts | 51° |
| 2026-05-07 20:21 | 39.95231 | 3.52714 | 20218 ft | 425 kts | 51° |
| 2026-05-07 20:21 | 39.97171 | 3.55650 | 20783 ft | 430 kts | 51° |
| 2026-05-07 20:22 | 39.99114 | 3.58589 | 21282 ft | 435 kts | 50° |
| 2026-05-07 20:22 | 40.01096 | 3.61589 | 21868 ft | 438 kts | 50° |
| 2026-05-07 20:22 | 40.03095 | 3.64614 | 22386 ft | 442 kts | 50° |
| 2026-05-07 20:22 | 40.05092 | 3.67643 | 22855 ft | 447 kts | 51° |
| 2026-05-07 20:23 | 40.07123 | 3.70733 | 23336 ft | 451 kts | 51° |
| 2026-05-07 20:23 | 40.09174 | 3.73859 | 23859 ft | 455 kts | 51° |
| 2026-05-07 20:23 | 40.11239 | 3.77005 | 24325 ft | 459 kts | 51° |
| 2026-05-07 20:23 | 40.13326 | 3.80187 | 24778 ft | 464 kts | 51° |
| 2026-05-07 20:24 | 40.15440 | 3.83413 | 25250 ft | 467 kts | 51° |
| 2026-05-07 20:24 | 40.17544 | 3.86624 | 25688 ft | 472 kts | 51° |
| 2026-05-07 20:24 | 40.19682 | 3.89889 | 26116 ft | 476 kts | 51° |
| 2026-05-07 20:24 | 40.21850 | 3.93201 | 26548 ft | 480 kts | 51° |
| 2026-05-07 20:25 | 40.24024 | 3.96526 | 26987 ft | 483 kts | 51° |
| 2026-05-07 20:25 | 40.26209 | 3.99873 | 27398 ft | 487 kts | 52° |
| 2026-05-07 20:25 | 40.28395 | 4.03223 | 27839 ft | 490 kts | 51° |
| 2026-05-07 20:25 | 40.30622 | 4.06642 | 28187 ft | 495 kts | 52° |
| 2026-05-07 20:26 | 40.32851 | 4.10070 | 28645 ft | 497 kts | 51° |
| 2026-05-07 20:26 | 40.35081 | 4.13503 | 29034 ft | 500 kts | 52° |
| 2026-05-07 20:26 | 40.37326 | 4.16958 | 29582 ft | 499 kts | 52° |
| 2026-05-07 20:26 | 40.39568 | 4.20408 | 30113 ft | 499 kts | 52° |
| 2026-05-07 20:27 | 40.41811 | 4.23867 | 30509 ft | 502 kts | 52° |
| 2026-05-07 20:27 | 40.44126 | 4.27375 | 30849 ft | 505 kts | 50° |
| 2026-05-07 20:27 | 40.46531 | 4.30711 | 31287 ft | 507 kts | 46° |
| 2026-05-07 20:27 | 40.49150 | 4.33775 | 31676 ft | 510 kts | 40° |
| 2026-05-07 20:28 | 40.51991 | 4.36503 | 32093 ft | 511 kts | 34° |
| 2026-05-07 20:28 | 40.55047 | 4.38879 | 32530 ft | 512 kts | 28° |
| 2026-05-07 20:28 | 40.58286 | 4.40864 | 32997 ft | 511 kts | 21° |
| 2026-05-07 20:28 | 40.61636 | 4.42417 | 33391 ft | 511 kts | 15° |
| 2026-05-07 20:29 | 40.65097 | 4.43542 | 33715 ft | 512 kts | 9° |
| 2026-05-07 20:29 | 40.68578 | 4.44209 | 34109 ft | 510 kts | 2° |
| 2026-05-07 20:29 | 40.72116 | 4.44465 | 34652 ft | 505 kts | 358° |
| 2026-05-07 20:29 | 40.75590 | 4.44551 | 35042 ft | 502 kts | 358° |
| 2026-05-07 20:30 | 40.79109 | 4.44698 | 35310 ft | 503 kts | 360° |
| 2026-05-07 20:30 | 40.82581 | 4.45010 | 35593 ft | 502 kts | 2° |
| 2026-05-07 20:30 | 40.86029 | 4.45500 | 35872 ft | 499 kts | 4° |
| 2026-05-07 20:31 | 40.92839 | 4.46851 | 35963 ft | 495 kts | 7° |
| 2026-05-07 20:31 | 40.99627 | 4.48463 | 35985 ft | 494 kts | 7° |
| 2026-05-07 20:32 | 41.06382 | 4.50136 | 35995 ft | 496 kts | 7° |
| 2026-05-07 20:32 | 41.13142 | 4.51809 | 35995 ft | 494 kts | 7° |
| 2026-05-07 20:33 | 41.19931 | 4.53480 | 35996 ft | 496 kts | 7° |
| 2026-05-07 20:33 | 41.26702 | 4.55141 | 36001 ft | 496 kts | 7° |
| 2026-05-07 20:34 | 41.33440 | 4.56846 | 35999 ft | 497 kts | 11° |
| 2026-05-07 20:34 | 41.39955 | 4.59962 | 35997 ft | 501 kts | 22° |
| 2026-05-07 20:35 | 41.46242 | 4.63921 | 35994 ft | 500 kts | 24° |
| 2026-05-07 20:35 | 41.52521 | 4.67988 | 35989 ft | 502 kts | 25° |
| 2026-05-07 20:36 | 41.58806 | 4.71965 | 35989 ft | 500 kts | 24° |
| 2026-05-07 20:36 | 41.65125 | 4.75877 | 35987 ft | 501 kts | 23° |
| 2026-05-07 20:37 | 41.71445 | 4.79754 | 35986 ft | 502 kts | 23° |
| 2026-05-07 20:37 | 41.77789 | 4.83634 | 35988 ft | 500 kts | 23° |
| 2026-05-07 20:38 | 41.84112 | 4.87507 | 35986 ft | 500 kts | 23° |
| 2026-05-07 20:38 | 41.90460 | 4.91402 | 35982 ft | 500 kts | 23° |
| 2026-05-07 20:39 | 41.96764 | 4.95282 | 35986 ft | 500 kts | 23° |
| 2026-05-07 20:39 | 42.03080 | 4.99179 | 35992 ft | 500 kts | 23° |
| 2026-05-07 20:40 | 42.09384 | 5.03077 | 35997 ft | 500 kts | 23° |
| 2026-05-07 20:40 | 42.15691 | 5.06987 | 35990 ft | 498 kts | 23° |
| 2026-05-07 20:41 | 42.21974 | 5.10889 | 35992 ft | 500 kts | 23° |
| 2026-05-07 20:41 | 42.28292 | 5.14819 | 35990 ft | 500 kts | 22° |
| 2026-05-07 20:42 | 42.34633 | 5.18774 | 35990 ft | 499 kts | 23° |
| 2026-05-07 20:42 | 42.40894 | 5.22686 | 35990 ft | 499 kts | 23° |
| 2026-05-07 20:43 | 42.47204 | 5.26639 | 35991 ft | 499 kts | 23° |
| 2026-05-07 20:43 | 42.53518 | 5.30604 | 35986 ft | 498 kts | 23° |
| 2026-05-07 20:44 | 42.59767 | 5.34537 | 35991 ft | 499 kts | 22° |
| 2026-05-07 20:44 | 42.66067 | 5.38514 | 35990 ft | 496 kts | 22° |
| 2026-05-07 20:45 | 42.72339 | 5.42479 | 35993 ft | 497 kts | 22° |
| 2026-05-07 20:45 | 42.78580 | 5.46430 | 35992 ft | 497 kts | 22° |
| 2026-05-07 20:46 | 42.84849 | 5.50409 | 35987 ft | 496 kts | 22° |
| 2026-05-07 20:46 | 42.91120 | 5.54401 | 35994 ft | 498 kts | 22° |
| 2026-05-07 20:47 | 42.97395 | 5.58402 | 35986 ft | 498 kts | 22° |
| 2026-05-07 20:47 | 43.03640 | 5.62392 | 35984 ft | 497 kts | 22° |
| 2026-05-07 20:48 | 43.09907 | 5.66407 | 35979 ft | 499 kts | 23° |
| 2026-05-07 20:48 | 43.16188 | 5.70439 | 35982 ft | 499 kts | 23° |
| 2026-05-07 20:49 | 43.22441 | 5.74463 | 35985 ft | 499 kts | 23° |
| 2026-05-07 20:49 | 43.28737 | 5.78522 | 35982 ft | 498 kts | 22° |
| 2026-05-07 20:50 | 43.34980 | 5.82557 | 35981 ft | 498 kts | 23° |
| 2026-05-07 20:50 | 43.41253 | 5.86622 | 35984 ft | 497 kts | 23° |
| 2026-05-07 20:51 | 43.47517 | 5.90693 | 35984 ft | 499 kts | 22° |
| 2026-05-07 20:51 | 43.53761 | 5.94761 | 35982 ft | 497 kts | 23° |
| 2026-05-07 20:52 | 43.59997 | 5.98830 | 35984 ft | 498 kts | 22° |
| 2026-05-07 20:52 | 43.66281 | 6.02938 | 35988 ft | 498 kts | 22° |
| 2026-05-07 20:53 | 43.72526 | 6.07031 | 35990 ft | 498 kts | 22° |
| 2026-05-07 20:53 | 43.78765 | 6.11130 | 35997 ft | 499 kts | 22° |
| 2026-05-07 20:54 | 43.85035 | 6.15257 | 36006 ft | 497 kts | 22° |
| 2026-05-07 20:54 | 43.91248 | 6.19356 | 36008 ft | 497 kts | 22° |
| 2026-05-07 20:55 | 43.97489 | 6.23487 | 36015 ft | 497 kts | 22° |
| 2026-05-07 20:55 | 44.03652 | 6.27578 | 36028 ft | 492 kts | 22° |
| 2026-05-07 20:56 | 44.09901 | 6.31729 | 36037 ft | 498 kts | 22° |
| 2026-05-07 20:56 | 44.16103 | 6.35861 | 36047 ft | 494 kts | 22° |
| 2026-05-07 20:57 | 44.22300 | 6.39996 | 36051 ft | 495 kts | 22° |
| 2026-05-07 20:57 | 44.28474 | 6.44129 | 36050 ft | 494 kts | 22° |
| 2026-05-07 20:58 | 44.34682 | 6.48297 | 36051 ft | 492 kts | 22° |
| 2026-05-07 20:58 | 44.40819 | 6.52426 | 36048 ft | 492 kts | 22° |
| 2026-05-07 20:59 | 44.46940 | 6.56552 | 36044 ft | 489 kts | 21° |
| 2026-05-07 20:59 | 44.53050 | 6.60679 | 36046 ft | 489 kts | 21° |
| 2026-05-07 21:00 | 44.59185 | 6.64831 | 36043 ft | 488 kts | 21° |
| 2026-05-07 21:00 | 44.65293 | 6.68977 | 36051 ft | 487 kts | 22° |
| 2026-05-07 21:01 | 44.71398 | 6.73126 | 36059 ft | 488 kts | 22° |
| 2026-05-07 21:01 | 44.77462 | 6.77264 | 36071 ft | 486 kts | 22° |
| 2026-05-07 21:02 | 44.83550 | 6.81403 | 36053 ft | 485 kts | 21° |
| 2026-05-07 21:02 | 44.89587 | 6.85431 | 36039 ft | 481 kts | 21° |
| 2026-05-07 21:03 | 44.95672 | 6.89466 | 36047 ft | 482 kts | 21° |
| 2026-05-07 21:03 | 45.01704 | 6.93479 | 36059 ft | 483 kts | 21° |
| 2026-05-07 21:04 | 45.07747 | 6.97517 | 36067 ft | 481 kts | 21° |
| 2026-05-07 21:04 | 45.13793 | 7.01566 | 36073 ft | 481 kts | 21° |
| 2026-05-07 21:05 | 45.19828 | 7.05625 | 36071 ft | 479 kts | 21° |
| 2026-05-07 21:05 | 45.25869 | 7.09699 | 36066 ft | 479 kts | 21° |
| 2026-05-07 21:06 | 45.31856 | 7.13750 | 36063 ft | 480 kts | 21° |
| 2026-05-07 21:06 | 45.37862 | 7.17824 | 36064 ft | 479 kts | 21° |
| 2026-05-07 21:07 | 45.43864 | 7.21902 | 36061 ft | 478 kts | 21° |
| 2026-05-07 21:07 | 45.49862 | 7.25989 | 36059 ft | 478 kts | 21° |
| 2026-05-07 21:08 | 45.55853 | 7.30078 | 36050 ft | 478 kts | 21° |
| 2026-05-07 21:08 | 45.61779 | 7.34135 | 36059 ft | 476 kts | 21° |
| 2026-05-07 21:09 | 45.67779 | 7.38252 | 36071 ft | 477 kts | 21° |
| 2026-05-07 21:09 | 45.73716 | 7.42335 | 36077 ft | 476 kts | 21° |
| 2026-05-07 21:10 | 45.79672 | 7.46440 | 36076 ft | 476 kts | 21° |
| 2026-05-07 21:10 | 45.85616 | 7.50545 | 36088 ft | 476 kts | 21° |
| 2026-05-07 21:11 | 45.91567 | 7.54665 | 36082 ft | 475 kts | 21° |
| 2026-05-07 21:11 | 46.00491 | 7.60864 | 36075 ft | 476 kts | 21° |
| 2026-05-07 21:12 | 46.06406 | 7.64986 | 36068 ft | 474 kts | 22° |
| 2026-05-07 21:12 | 46.12336 | 7.69127 | 36065 ft | 474 kts | 22° |
| 2026-05-07 21:13 | 46.18265 | 7.73277 | 36071 ft | 474 kts | 22° |
| 2026-05-07 21:13 | 46.24155 | 7.77409 | 36066 ft | 473 kts | 22° |
| 2026-05-07 21:14 | 46.30077 | 7.81573 | 36066 ft | 473 kts | 22° |
| 2026-05-07 21:14 | 46.35991 | 7.85742 | 36067 ft | 474 kts | 22° |
| 2026-05-07 21:15 | 46.41890 | 7.89912 | 36074 ft | 473 kts | 22° |
| 2026-05-07 21:15 | 46.47769 | 7.94077 | 36080 ft | 473 kts | 22° |
| 2026-05-07 21:16 | 46.53692 | 7.98282 | 36070 ft | 473 kts | 22° |
| 2026-05-07 21:16 | 46.59592 | 8.02484 | 36074 ft | 473 kts | 22° |
| 2026-05-07 21:17 | 46.65477 | 8.06687 | 36069 ft | 471 kts | 22° |
| 2026-05-07 21:17 | 46.71339 | 8.10883 | 36064 ft | 470 kts | 22° |
| 2026-05-07 21:18 | 46.77194 | 8.15078 | 36056 ft | 471 kts | 22° |
| 2026-05-07 21:18 | 46.83051 | 8.19288 | 36054 ft | 471 kts | 22° |
| 2026-05-07 21:19 | 46.88921 | 8.23518 | 36059 ft | 471 kts | 22° |
| 2026-05-07 21:19 | 46.94769 | 8.27740 | 36057 ft | 471 kts | 22° |
| 2026-05-07 21:20 | 47.00659 | 8.32005 | 36051 ft | 471 kts | 22° |
| 2026-05-07 21:20 | 47.06498 | 8.36244 | 36060 ft | 471 kts | 22° |
| 2026-05-07 21:21 | 47.12360 | 8.40508 | 36058 ft | 470 kts | 22° |
| 2026-05-07 21:21 | 47.18200 | 8.44771 | 36062 ft | 469 kts | 22° |
| 2026-05-07 21:22 | 47.24037 | 8.49039 | 36060 ft | 470 kts | 22° |
| 2026-05-07 21:22 | 47.29860 | 8.53306 | 36073 ft | 470 kts | 22° |
| 2026-05-07 21:23 | 47.35735 | 8.57625 | 36069 ft | 470 kts | 22° |
| 2026-05-07 21:23 | 47.41542 | 8.61904 | 36056 ft | 469 kts | 22° |
| 2026-05-07 21:24 | 47.47373 | 8.66210 | 36068 ft | 470 kts | 23° |
| 2026-05-07 21:24 | 47.53221 | 8.70539 | 36062 ft | 469 kts | 23° |
| 2026-05-07 21:25 | 47.59037 | 8.74856 | 36069 ft | 470 kts | 23° |
| 2026-05-07 21:25 | 47.64846 | 8.79177 | 36068 ft | 470 kts | 23° |
| 2026-05-07 21:26 | 47.70664 | 8.83520 | 36071 ft | 469 kts | 23° |
| 2026-05-07 21:26 | 47.76511 | 8.87893 | 36063 ft | 470 kts | 23° |
| 2026-05-07 21:27 | 47.82309 | 8.92239 | 36074 ft | 470 kts | 23° |
| 2026-05-07 21:27 | 47.88134 | 8.96618 | 36062 ft | 469 kts | 23° |
| 2026-05-07 21:28 | 47.93943 | 9.00996 | 36063 ft | 470 kts | 23° |
| 2026-05-07 21:28 | 47.99769 | 9.05397 | 36061 ft | 469 kts | 23° |
| 2026-05-07 21:29 | 48.05519 | 9.09757 | 36060 ft | 462 kts | 23° |
| 2026-05-07 21:29 | 48.11292 | 9.14137 | 36066 ft | 470 kts | 24° |
| 2026-05-07 21:30 | 48.17076 | 9.18557 | 36063 ft | 467 kts | 25° |
| 2026-05-07 21:30 | 48.22659 | 9.23512 | 36061 ft | 469 kts | 29° |
| 2026-05-07 21:31 | 48.28057 | 9.28738 | 36065 ft | 465 kts | 30° |
| 2026-05-07 21:31 | 48.33537 | 9.34076 | 36066 ft | 472 kts | 30° |
| 2026-05-07 21:32 | 48.39020 | 9.39381 | 36059 ft | 469 kts | 29° |
| 2026-05-07 21:32 | 48.44505 | 9.44662 | 36062 ft | 470 kts | 29° |
| 2026-05-07 21:33 | 48.50008 | 9.49949 | 36059 ft | 469 kts | 29° |
| 2026-05-07 21:33 | 48.55465 | 9.55193 | 36060 ft | 468 kts | 29° |
| 2026-05-07 21:34 | 48.60936 | 9.60463 | 36063 ft | 469 kts | 29° |
| 2026-05-07 21:34 | 48.66423 | 9.65764 | 36062 ft | 468 kts | 30° |
| 2026-05-07 21:35 | 48.71929 | 9.71096 | 36383 ft | 469 kts | 30° |
| 2026-05-07 21:35 | 48.74655 | 9.73740 | 35866 ft | 469 kts | 30° |
| 2026-05-07 21:35 | 48.77377 | 9.76386 | 36309 ft | 462 kts | 30° |
| 2026-05-07 21:36 | 48.80106 | 9.79040 | 36181 ft | 469 kts | 30° |
| 2026-05-07 21:36 | 48.82819 | 9.81681 | 36091 ft | 465 kts | 30° |
| 2026-05-07 21:36 | 48.88199 | 9.86931 | 36066 ft | 463 kts | 30° |
| 2026-05-07 21:37 | 48.93628 | 9.92236 | 36066 ft | 465 kts | 30° |
| 2026-05-07 21:37 | 48.99058 | 9.97560 | 36069 ft | 465 kts | 30° |
| 2026-05-07 21:38 | 49.04470 | 10.02883 | 36065 ft | 464 kts | 30° |
| 2026-05-07 21:38 | 49.09865 | 10.08203 | 36063 ft | 463 kts | 30° |
| 2026-05-07 21:39 | 49.15250 | 10.13528 | 36065 ft | 464 kts | 30° |
| 2026-05-07 21:39 | 49.20640 | 10.18873 | 36060 ft | 463 kts | 30° |
| 2026-05-07 21:40 | 49.26042 | 10.24242 | 36062 ft | 463 kts | 30° |
| 2026-05-07 21:40 | 49.31410 | 10.29589 | 36070 ft | 463 kts | 30° |
| 2026-05-07 21:41 | 49.36810 | 10.34983 | 36065 ft | 463 kts | 30° |
| 2026-05-07 21:41 | 49.42159 | 10.40341 | 36073 ft | 463 kts | 30° |
| 2026-05-07 21:42 | 49.47539 | 10.45744 | 36072 ft | 463 kts | 30° |
| 2026-05-07 21:42 | 49.52936 | 10.51179 | 36068 ft | 463 kts | 30° |
| 2026-05-07 21:43 | 49.58301 | 10.56596 | 36070 ft | 463 kts | 30° |
| 2026-05-07 21:43 | 49.63650 | 10.62011 | 36070 ft | 462 kts | 30° |
| 2026-05-07 21:44 | 49.69014 | 10.67454 | 36067 ft | 462 kts | 31° |
| 2026-05-07 21:44 | 49.74339 | 10.72874 | 36072 ft | 461 kts | 31° |
| 2026-05-07 21:45 | 49.79703 | 10.78351 | 36064 ft | 461 kts | 31° |
| 2026-05-07 21:45 | 49.85039 | 10.83813 | 36075 ft | 461 kts | 31° |
| 2026-05-07 21:46 | 49.90351 | 10.89263 | 36072 ft | 462 kts | 31° |
| 2026-05-07 21:46 | 49.95717 | 10.94781 | 36068 ft | 462 kts | 31° |
| 2026-05-07 21:47 | 50.01053 | 11.00285 | 36070 ft | 462 kts | 31° |
| 2026-05-07 21:47 | 50.06368 | 11.05782 | 36069 ft | 462 kts | 31° |
| 2026-05-07 21:48 | 50.11691 | 11.11303 | 36074 ft | 461 kts | 31° |
| 2026-05-07 21:48 | 50.17011 | 11.16837 | 36071 ft | 460 kts | 32° |
| 2026-05-07 21:49 | 50.22347 | 11.22401 | 36076 ft | 461 kts | 31° |
| 2026-05-07 21:49 | 50.27656 | 11.27952 | 36071 ft | 461 kts | 32° |
| 2026-05-07 21:50 | 50.32941 | 11.33493 | 36068 ft | 461 kts | 32° |
| 2026-05-07 21:50 | 50.38272 | 11.39097 | 36066 ft | 461 kts | 32° |
| 2026-05-07 21:51 | 50.43607 | 11.44722 | 36058 ft | 461 kts | 32° |
| 2026-05-07 21:51 | 50.48907 | 11.50324 | 36059 ft | 461 kts | 32° |
| 2026-05-07 21:52 | 50.54170 | 11.55904 | 36066 ft | 461 kts | 32° |
| 2026-05-07 21:52 | 50.59494 | 11.61564 | 36075 ft | 460 kts | 32° |
| 2026-05-07 21:53 | 50.64759 | 11.67178 | 36082 ft | 461 kts | 33° |
| 2026-05-07 21:53 | 50.70053 | 11.72835 | 36090 ft | 461 kts | 33° |
| 2026-05-07 21:54 | 50.75351 | 11.78513 | 36095 ft | 461 kts | 33° |
| 2026-05-07 21:54 | 50.80636 | 11.84192 | 36087 ft | 460 kts | 33° |
| 2026-05-07 21:55 | 50.85942 | 11.89908 | 36093 ft | 462 kts | 33° |
| 2026-05-07 21:55 | 50.91205 | 11.95598 | 36095 ft | 461 kts | 33° |
| 2026-05-07 21:56 | 50.93851 | 11.98464 | 35875 ft | 457 kts | 33° |
| 2026-05-07 21:56 | 50.96449 | 12.01281 | 35405 ft | 455 kts | 33° |
| 2026-05-07 21:56 | 50.99073 | 12.04131 | 34783 ft | 458 kts | 32° |
| 2026-05-07 21:56 | 51.01698 | 12.06983 | 34092 ft | 463 kts | 32° |
| 2026-05-07 21:57 | 51.04345 | 12.09865 | 33593 ft | 462 kts | 33° |
| 2026-05-07 21:57 | 51.06985 | 12.12744 | 33250 ft | 456 kts | 33° |
| 2026-05-07 21:57 | 51.09574 | 12.15572 | 32728 ft | 456 kts | 33° |
| 2026-05-07 21:57 | 51.12176 | 12.18419 | 32201 ft | 455 kts | 33° |
| 2026-05-07 21:58 | 51.14774 | 12.21265 | 31549 ft | 455 kts | 33° |
| 2026-05-07 21:58 | 51.17389 | 12.24132 | 30804 ft | 455 kts | 33° |
| 2026-05-07 21:58 | 51.19965 | 12.26960 | 29973 ft | 454 kts | 33° |
| 2026-05-07 21:58 | 51.22543 | 12.29797 | 29446 ft | 447 kts | 33° |
| 2026-05-07 21:59 | 51.25079 | 12.32591 | 28807 ft | 443 kts | 33° |
| 2026-05-07 21:59 | 51.27599 | 12.35372 | 28152 ft | 438 kts | 33° |
| 2026-05-07 21:59 | 51.30083 | 12.38116 | 27508 ft | 434 kts | 33° |
| 2026-05-07 21:59 | 51.32531 | 12.40823 | 26875 ft | 430 kts | 33° |
| 2026-05-07 22:00 | 51.34959 | 12.43511 | 26232 ft | 426 kts | 33° |
| 2026-05-07 22:00 | 51.37381 | 12.46197 | 25580 ft | 422 kts | 33° |
| 2026-05-07 22:00 | 51.39792 | 12.48872 | 24947 ft | 418 kts | 33° |
| 2026-05-07 22:00 | 51.42171 | 12.51518 | 24325 ft | 415 kts | 33° |
| 2026-05-07 22:01 | 51.44510 | 12.54121 | 23678 ft | 412 kts | 33° |
| 2026-05-07 22:01 | 51.46857 | 12.56736 | 23098 ft | 407 kts | 33° |
| 2026-05-07 22:01 | 51.49168 | 12.59315 | 22495 ft | 404 kts | 33° |
| 2026-05-07 22:01 | 51.51452 | 12.61866 | 21929 ft | 399 kts | 33° |
| 2026-05-07 22:02 | 51.53693 | 12.64374 | 21332 ft | 396 kts | 33° |
| 2026-05-07 22:02 | 51.55971 | 12.66924 | 20713 ft | 393 kts | 33° |
| 2026-05-07 22:02 | 51.58173 | 12.69391 | 20153 ft | 390 kts | 33° |
| 2026-05-07 22:02 | 51.60379 | 12.71864 | 19596 ft | 385 kts | 33° |
| 2026-05-07 22:03 | 51.62566 | 12.74317 | 18996 ft | 382 kts | 33° |
| 2026-05-07 22:03 | 51.64730 | 12.76746 | 18368 ft | 380 kts | 33° |
| 2026-05-07 22:03 | 51.66884 | 12.79196 | 17737 ft | 378 kts | 34° |
| 2026-05-07 22:03 | 51.68997 | 12.81605 | 17222 ft | 373 kts | 34° |
| 2026-05-07 22:04 | 51.71119 | 12.83995 | 16656 ft | 370 kts | 34° |
| 2026-05-07 22:04 | 51.73202 | 12.86331 | 16073 ft | 368 kts | 33° |
| 2026-05-07 22:04 | 51.75311 | 12.88658 | 15546 ft | 367 kts | 32° |
| 2026-05-07 22:04 | 51.77460 | 12.90738 | 15036 ft | 361 kts | 26° |
| 2026-05-07 22:05 | 51.79757 | 12.92252 | 14528 ft | 355 kts | 16° |
| 2026-05-07 22:05 | 51.82137 | 12.93241 | 13974 ft | 352 kts | 12° |
| 2026-05-07 22:05 | 51.84537 | 12.94008 | 13237 ft | 355 kts | 10° |
| 2026-05-07 22:05 | 51.86930 | 12.94706 | 13033 ft | 341 kts | 10° |
| 2026-05-07 22:06 | 51.89230 | 12.95404 | 12647 ft | 334 kts | 11° |
| 2026-05-07 22:06 | 51.91484 | 12.96125 | 12122 ft | 331 kts | 11° |
| 2026-05-07 22:06 | 51.93697 | 12.96854 | 11601 ft | 322 kts | 11° |
| 2026-05-07 22:06 | 51.95850 | 12.97574 | 11087 ft | 314 kts | 11° |
| 2026-05-07 22:07 | 51.97963 | 12.98282 | 10592 ft | 306 kts | 12° |
| 2026-05-07 22:07 | 52.00041 | 12.98980 | 10118 ft | 298 kts | 12° |
| 2026-05-07 22:07 | 52.02023 | 12.99645 | 9689 ft | 290 kts | 12° |
| 2026-05-07 22:07 | 52.03981 | 13.00300 | 9257 ft | 283 kts | 12° |
| 2026-05-07 22:08 | 52.05886 | 13.00938 | 8829 ft | 277 kts | 12° |
| 2026-05-07 22:08 | 52.07758 | 13.01563 | 8398 ft | 274 kts | 12° |
| 2026-05-07 22:08 | 52.09600 | 13.02181 | 7977 ft | 272 kts | 12° |
| 2026-05-07 22:08 | 52.11451 | 13.02807 | 7614 ft | 270 kts | 12° |
| 2026-05-07 22:09 | 52.13292 | 13.03423 | 7168 ft | 271 kts | 12° |
| 2026-05-07 22:09 | 52.15147 | 13.04038 | 6658 ft | 275 kts | 13° |
| 2026-05-07 22:09 | 52.17004 | 13.04658 | 6227 ft | 270 kts | 13° |
| 2026-05-07 22:09 | 52.18811 | 13.05287 | 5886 ft | 261 kts | 13° |
| 2026-05-07 22:10 | 52.20585 | 13.05912 | 5536 ft | 254 kts | 13° |
| 2026-05-07 22:10 | 52.22290 | 13.06491 | 5208 ft | 247 kts | 13° |
| 2026-05-07 22:10 | 52.23938 | 13.06981 | 4886 ft | 243 kts | 12° |
| 2026-05-07 22:10 | 52.25576 | 13.07564 | 4554 ft | 238 kts | 19° |
| 2026-05-07 22:11 | 52.27037 | 13.08746 | 4209 ft | 233 kts | 40° |
| 2026-05-07 22:11 | 52.27929 | 13.10851 | 3992 ft | 222 kts | 69° |
| 2026-05-07 22:11 | 52.28384 | 13.13224 | 3981 ft | 215 kts | 73° |
| 2026-05-07 22:11 | 52.28831 | 13.15468 | 3968 ft | 198 kts | 69° |
| 2026-05-07 22:12 | 52.29327 | 13.17463 | 3987 ft | 183 kts | 67° |
| 2026-05-07 22:12 | 52.29791 | 13.19356 | 4002 ft | 179 kts | 68° |
| 2026-05-07 22:12 | 52.30232 | 13.21204 | 3977 ft | 176 kts | 67° |
| 2026-05-07 22:12 | 52.30686 | 13.23105 | 3612 ft | 179 kts | 68° |
| 2026-05-07 22:13 | 52.31116 | 13.24954 | 3319 ft | 171 kts | 67° |
| 2026-05-07 22:13 | 52.31563 | 13.26784 | 3090 ft | 173 kts | 67° |
| 2026-05-07 22:13 | 52.31998 | 13.28596 | 2846 ft | 172 kts | 67° |
| 2026-05-07 22:13 | 52.32434 | 13.30401 | 2592 ft | 165 kts | 67° |
| 2026-05-07 22:14 | 52.32828 | 13.32046 | 2378 ft | 149 kts | 66° |
| 2026-05-07 22:14 | 52.33192 | 13.33564 | 2143 ft | 137 kts | 66° |
| 2026-05-07 22:14 | 52.33534 | 13.34991 | 1970 ft | 135 kts | 66° |
| 2026-05-07 22:14 | 52.33875 | 13.36412 | 1777 ft | 134 kts | 66° |
| 2026-05-07 22:15 | 52.34214 | 13.37827 | 1593 ft | 135 kts | 66° |
| 2026-05-07 22:15 | 52.34560 | 13.39271 | 1404 ft | 136 kts | 66° |
| 2026-05-07 22:15 | 52.34903 | 13.40704 | 1217 ft | 136 kts | 66° |
| 2026-05-07 22:15 | 52.35251 | 13.42161 | 1026 ft | 137 kts | 66° |
| 2026-05-07 22:16 | 52.35596 | 13.43608 | 839 ft | 137 kts | 66° |
| 2026-05-07 22:16 | 52.35941 | 13.45050 | 652 ft | 138 kts | 66° |
| 2026-05-07 22:16 | 52.36298 | 13.46527 | 468 ft | 137 kts | 66° |
| 2026-05-07 22:16 | 52.36644 | 13.47982 | 286 ft | 139 kts | 67° |
| 2026-05-07 22:17 | 52.36994 | 13.49435 | 166 ft | 120 kts | 69° |
| 2026-05-07 22:17 | 52.37214 | 13.50383 | 166 ft | 61 kts | 68° |
| 2026-05-07 22:17 | 52.37308 | 13.50873 | 166 ft | 33 kts | 86° |
| 2026-05-07 22:17 | 52.37290 | 13.51165 | 166 ft | 10 kts | 99° |
| 2026-05-07 22:18 | 52.37279 | 13.51281 | 166 ft | 10 kts | 98° |
| 2026-05-07 22:18 | 52.37182 | 13.51427 | 166 ft | 9 kts | 159° |
| 2026-05-07 22:18 | 52.37121 | 13.51464 | 166 ft | 9 kts | 158° |
| 2026-05-07 22:19 | 52.37064 | 13.51476 | 166 ft | 9 kts | 205° |
| 2026-05-07 22:19 | 52.37005 | 13.51307 | 166 ft | 22 kts | 248° |
| 2026-05-07 22:19 | 52.36950 | 13.51069 | 166 ft | 21 kts | 248° |
| 2026-05-07 22:19 | 52.36895 | 13.50841 | 166 ft | 21 kts | 248° |
| 2026-05-07 22:20 | 52.36843 | 13.50624 | 166 ft | 20 kts | 248° |
| 2026-05-07 22:20 | 52.36798 | 13.50433 | 166 ft | 14 kts | 249° |
| 2026-05-07 22:20 | 52.36771 | 13.50340 | 166 ft | 7 kts | 215° |
| 2026-05-07 22:20 | 52.36739 | 13.50348 | 166 ft | 4 kts | 158° |
| 2026-05-07 22:21 | 52.36712 | 13.50365 | 166 ft | 2 kts | 159° |
| 2026-05-07 22:21 | 52.36702 | 13.50372 | 166 ft | 1 kts | 158° |
| 2026-05-07 22:21 | 52.36700 | 13.50373 | 166 ft | 0 kts | 158° |